sensor_id;sensor_type;location;lat;lon;timestamp;temperature;humidity
54158;DHT22;40065;49.894;10.358;2023-06-14T00:03:24;19.60;60.50
54158;DHT22;40065;49.894;10.358;2023-06-14T00:08:27;19.50;60.70
54158;DHT22;40065;49.894;10.358;2023-06-14T00:13:29;19.60;61.00
54158;DHT22;40065;49.894;10.358;2023-06-14T00:18:31;19.60;61.10
54158;DHT22;40065;49.894;10.358;2023-06-14T00:23:33;19.60;60.90
54158;DHT22;40065;49.894;10.358;2023-06-14T00:28:35;19.50;61.40
54158;DHT22;40065;49.894;10.358;2023-06-14T00:33:37;19.40;61.90
54158;DHT22;40065;49.894;10.358;2023-06-14T00:38:39;19.30;62.30
54158;DHT22;40065;49.894;10.358;2023-06-14T00:43:43;19.10;63.00
54158;DHT22;40065;49.894;10.358;2023-06-14T00:48:45;19.00;63.80
54158;DHT22;40065;49.894;10.358;2023-06-14T00:53:47;19.00;63.50
54158;DHT22;40065;49.894;10.358;2023-06-14T00:58:51;19.00;63.90
54158;DHT22;40065;49.894;10.358;2023-06-14T01:03:53;19.00;63.60
54158;DHT22;40065;49.894;10.358;2023-06-14T01:14:16;18.80;64.50
54158;DHT22;40065;49.894;10.358;2023-06-14T01:19:20;18.80;64.10
54158;DHT22;40065;49.894;10.358;2023-06-14T01:24:24;18.70;65.10
54158;DHT22;40065;49.894;10.358;2023-06-14T01:29:27;18.70;64.90
54158;DHT22;40065;49.894;10.358;2023-06-14T01:34:34;18.60;65.00
54158;DHT22;40065;49.894;10.358;2023-06-14T01:39:36;18.70;65.10
54158;DHT22;40065;49.894;10.358;2023-06-14T01:44:38;18.50;65.30
54158;DHT22;40065;49.894;10.358;2023-06-14T01:49:41;18.60;65.20
54158;DHT22;40065;49.894;10.358;2023-06-14T01:54:43;18.50;65.70
54158;DHT22;40065;49.894;10.358;2023-06-14T01:59:44;18.20;66.10
54158;DHT22;40065;49.894;10.358;2023-06-14T02:04:49;18.30;66.70
54158;DHT22;40065;49.894;10.358;2023-06-14T02:09:51;18.30;66.40
54158;DHT22;40065;49.894;10.358;2023-06-14T02:14:53;18.00;67.60
54158;DHT22;40065;49.894;10.358;2023-06-14T02:19:57;17.90;68.00
54158;DHT22;40065;49.894;10.358;2023-06-14T02:25:00;17.80;68.60
54158;DHT22;40065;49.894;10.358;2023-06-14T02:30:03;17.80;68.10
54158;DHT22;40065;49.894;10.358;2023-06-14T02:35:07;17.80;68.80
54158;DHT22;40065;49.894;10.358;2023-06-14T02:40:10;17.70;68.60
54158;DHT22;40065;49.894;10.358;2023-06-14T02:45:13;17.70;68.80
54158;DHT22;40065;49.894;10.358;2023-06-14T02:50:15;17.60;69.40
54158;DHT22;40065;49.894;10.358;2023-06-14T02:55:18;17.40;69.70
54158;DHT22;40065;49.894;10.358;2023-06-14T03:00:20;17.20;70.10
54158;DHT22;40065;49.894;10.358;2023-06-14T03:05:22;17.20;70.30
54158;DHT22;40065;49.894;10.358;2023-06-14T03:10:25;17.20;70.50
54158;DHT22;40065;49.894;10.358;2023-06-14T03:15:32;17.00;72.00
54158;DHT22;40065;49.894;10.358;2023-06-14T03:20:35;17.00;71.90
54158;DHT22;40065;49.894;10.358;2023-06-14T03:25:38;17.00;71.90
54158;DHT22;40065;49.894;10.358;2023-06-14T03:30:40;17.00;71.70
54158;DHT22;40065;49.894;10.358;2023-06-14T03:35:44;17.20;71.10
54158;DHT22;40065;49.894;10.358;2023-06-14T03:40:46;17.20;71.40
54158;DHT22;40065;49.894;10.358;2023-06-14T03:45:48;17.20;71.60
54158;DHT22;40065;49.894;10.358;2023-06-14T03:50:51;17.80;70.20
54158;DHT22;40065;49.894;10.358;2023-06-14T03:55:55;18.10;69.50
54158;DHT22;40065;49.894;10.358;2023-06-14T04:01:02;18.60;68.10
54158;DHT22;40065;49.894;10.358;2023-06-14T04:06:06;19.40;66.60
54158;DHT22;40065;49.894;10.358;2023-06-14T04:11:08;20.10;64.60
54158;DHT22;40065;49.894;10.358;2023-06-14T04:16:10;20.50;63.70
54158;DHT22;40065;49.894;10.358;2023-06-14T04:21:12;21.30;62.30
54158;DHT22;40065;49.894;10.358;2023-06-14T04:26:14;21.90;61.30
54158;DHT22;40065;49.894;10.358;2023-06-14T04:31:19;23.20;59.80
54158;DHT22;40065;49.894;10.358;2023-06-14T04:36:23;24.00;57.70
54158;DHT22;40065;49.894;10.358;2023-06-14T04:41:25;24.90;57.00
54158;DHT22;40065;49.894;10.358;2023-06-14T04:46:32;25.30;55.50
54158;DHT22;40065;49.894;10.358;2023-06-14T04:51:34;26.30;53.80
54158;DHT22;40065;49.894;10.358;2023-06-14T04:56:36;25.10;55.20
54158;DHT22;40065;49.894;10.358;2023-06-14T05:01:40;25.60;54.40
54158;DHT22;40065;49.894;10.358;2023-06-14T05:06:43;25.40;54.40
54158;DHT22;40065;49.894;10.358;2023-06-14T05:11:50;24.40;56.10
54158;DHT22;40065;49.894;10.358;2023-06-14T05:16:52;25.80;54.70
54158;DHT22;40065;49.894;10.358;2023-06-14T05:21:54;26.10;53.90
54158;DHT22;40065;49.894;10.358;2023-06-14T05:26:57;26.60;53.00
54158;DHT22;40065;49.894;10.358;2023-06-14T05:31:59;26.00;53.60
54158;DHT22;40065;49.894;10.358;2023-06-14T05:37:00;25.90;53.80
54158;DHT22;40065;49.894;10.358;2023-06-14T05:42:02;26.30;53.90
54158;DHT22;40065;49.894;10.358;2023-06-14T05:47:04;26.40;53.40
54158;DHT22;40065;49.894;10.358;2023-06-14T05:52:07;26.40;54.10
54158;DHT22;40065;49.894;10.358;2023-06-14T05:57:10;27.10;53.10
54158;DHT22;40065;49.894;10.358;2023-06-14T06:02:12;27.00;52.70
54158;DHT22;40065;49.894;10.358;2023-06-14T06:07:14;26.50;53.30
54158;DHT22;40065;49.894;10.358;2023-06-14T06:12:16;26.90;53.30
54158;DHT22;40065;49.894;10.358;2023-06-14T06:17:18;27.00;53.30
54158;DHT22;40065;49.894;10.358;2023-06-14T06:22:20;27.20;52.60
54158;DHT22;40065;49.894;10.358;2023-06-14T06:27:22;26.90;52.70
54158;DHT22;40065;49.894;10.358;2023-06-14T06:32:24;26.70;53.10
54158;DHT22;40065;49.894;10.358;2023-06-14T06:37:26;26.60;53.20
54158;DHT22;40065;49.894;10.358;2023-06-14T06:42:28;27.20;52.50
54158;DHT22;40065;49.894;10.358;2023-06-14T06:47:33;26.60;53.50
54158;DHT22;40065;49.894;10.358;2023-06-14T06:52:35;26.00;54.20
54158;DHT22;40065;49.894;10.358;2023-06-14T06:57:37;26.50;53.50
54158;DHT22;40065;49.894;10.358;2023-06-14T07:02:39;26.80;53.00
54158;DHT22;40065;49.894;10.358;2023-06-14T07:07:41;26.90;53.40
54158;DHT22;40065;49.894;10.358;2023-06-14T07:12:43;27.40;53.00
54158;DHT22;40065;49.894;10.358;2023-06-14T07:17:44;27.80;51.90
54158;DHT22;40065;49.894;10.358;2023-06-14T07:22:47;28.10;51.60
54158;DHT22;40065;49.894;10.358;2023-06-14T07:27:49;27.70;52.10
54158;DHT22;40065;49.894;10.358;2023-06-14T07:32:53;28.00;51.50
54158;DHT22;40065;49.894;10.358;2023-06-14T07:37:56;27.80;50.40
54158;DHT22;40065;49.894;10.358;2023-06-14T07:42:58;27.90;50.80
54158;DHT22;40065;49.894;10.358;2023-06-14T07:47:59;27.90;50.70
54158;DHT22;40065;49.894;10.358;2023-06-14T07:53:01;27.80;51.40
54158;DHT22;40065;49.894;10.358;2023-06-14T07:58:03;28.30;50.10
54158;DHT22;40065;49.894;10.358;2023-06-14T08:03:05;27.80;49.90
54158;DHT22;40065;49.894;10.358;2023-06-14T08:08:07;28.10;49.80
54158;DHT22;40065;49.894;10.358;2023-06-14T08:13:09;28.20;49.30
54158;DHT22;40065;49.894;10.358;2023-06-14T08:18:12;27.90;49.40
54158;DHT22;40065;49.894;10.358;2023-06-14T08:23:14;27.90;49.70
54158;DHT22;40065;49.894;10.358;2023-06-14T08:28:18;28.20;49.20
54158;DHT22;40065;49.894;10.358;2023-06-14T08:33:23;28.30;49.70
54158;DHT22;40065;49.894;10.358;2023-06-14T08:38:25;29.30;48.10
54158;DHT22;40065;49.894;10.358;2023-06-14T08:43:27;29.50;49.20
54158;DHT22;40065;49.894;10.358;2023-06-14T08:48:30;30.20;47.40
54158;DHT22;40065;49.894;10.358;2023-06-14T08:53:36;29.70;47.80
54158;DHT22;40065;49.894;10.358;2023-06-14T08:58:44;29.20;47.60
54158;DHT22;40065;49.894;10.358;2023-06-14T09:03:46;29.20;48.50
54158;DHT22;40065;49.894;10.358;2023-06-14T09:08:50;29.50;46.80
54158;DHT22;40065;49.894;10.358;2023-06-14T09:13:52;29.90;47.10
54158;DHT22;40065;49.894;10.358;2023-06-14T09:18:54;30.10;46.40
54158;DHT22;40065;49.894;10.358;2023-06-14T09:23:59;30.10;46.00
54158;DHT22;40065;49.894;10.358;2023-06-14T09:29:05;30.30;47.00
54158;DHT22;40065;49.894;10.358;2023-06-14T09:34:07;29.70;46.20
54158;DHT22;40065;49.894;10.358;2023-06-14T09:39:10;28.60;48.20
54158;DHT22;40065;49.894;10.358;2023-06-14T09:44:12;29.30;47.50
54158;DHT22;40065;49.894;10.358;2023-06-14T09:49:21;28.90;46.90
54158;DHT22;40065;49.894;10.358;2023-06-14T09:54:25;27.80;49.60
54158;DHT22;40065;49.894;10.358;2023-06-14T09:59:30;28.80;47.70
54158;DHT22;40065;49.894;10.358;2023-06-14T10:04:34;28.60;47.50
54158;DHT22;40065;49.894;10.358;2023-06-14T10:09:36;29.80;46.60
54158;DHT22;40065;49.894;10.358;2023-06-14T10:14:38;29.40;46.60
54158;DHT22;40065;49.894;10.358;2023-06-14T10:19:54;29.30;46.80
54158;DHT22;40065;49.894;10.358;2023-06-14T10:24:56;29.40;46.20
54158;DHT22;40065;49.894;10.358;2023-06-14T10:35:06;30.40;45.70
54158;DHT22;40065;49.894;10.358;2023-06-14T10:40:09;30.90;45.20
54158;DHT22;40065;49.894;10.358;2023-06-14T10:45:31;30.70;44.20
54158;DHT22;40065;49.894;10.358;2023-06-14T10:50:32;29.40;45.70
54158;DHT22;40065;49.894;10.358;2023-06-14T10:55:36;28.50;46.10
54158;DHT22;40065;49.894;10.358;2023-06-14T11:00:38;28.80;46.60
54158;DHT22;40065;49.894;10.358;2023-06-14T11:05:56;28.40;46.00
54158;DHT22;40065;49.894;10.358;2023-06-14T11:11:05;28.10;45.60
54158;DHT22;40065;49.894;10.358;2023-06-14T11:16:15;29.60;45.10
54158;DHT22;40065;49.894;10.358;2023-06-14T11:21:18;30.20;44.20
54158;DHT22;40065;49.894;10.358;2023-06-14T11:26:30;30.10;44.40
54158;DHT22;40065;49.894;10.358;2023-06-14T11:31:32;30.00;44.80
54158;DHT22;40065;49.894;10.358;2023-06-14T11:36:34;30.70;44.10
54158;DHT22;40065;49.894;10.358;2023-06-14T11:41:40;30.70;43.40
54158;DHT22;40065;49.894;10.358;2023-06-14T11:46:42;29.80;44.80
54158;DHT22;40065;49.894;10.358;2023-06-14T11:51:44;30.10;44.10
54158;DHT22;40065;49.894;10.358;2023-06-14T11:56:46;30.30;44.10
54158;DHT22;40065;49.894;10.358;2023-06-14T12:01:48;31.90;42.90
54158;DHT22;40065;49.894;10.358;2023-06-14T12:06:50;31.00;42.60
54158;DHT22;40065;49.894;10.358;2023-06-14T12:12:00;30.20;43.80
54158;DHT22;40065;49.894;10.358;2023-06-14T12:17:07;30.50;42.50
54158;DHT22;40065;49.894;10.358;2023-06-14T12:22:10;30.70;42.40
54158;DHT22;40065;49.894;10.358;2023-06-14T12:27:12;30.20;43.80
54158;DHT22;40065;49.894;10.358;2023-06-14T12:32:17;30.70;44.60
54158;DHT22;40065;49.894;10.358;2023-06-14T12:37:19;31.90;42.30
54158;DHT22;40065;49.894;10.358;2023-06-14T12:42:21;32.10;42.20
54158;DHT22;40065;49.894;10.358;2023-06-14T12:47:23;32.80;41.70
54158;DHT22;40065;49.894;10.358;2023-06-14T12:52:25;31.80;42.20
54158;DHT22;40065;49.894;10.358;2023-06-14T12:57:26;30.90;42.40
54158;DHT22;40065;49.894;10.358;2023-06-14T13:02:28;30.00;43.50
54158;DHT22;40065;49.894;10.358;2023-06-14T13:07:30;30.40;43.30
54158;DHT22;40065;49.894;10.358;2023-06-14T13:12:32;31.40;42.80
54158;DHT22;40065;49.894;10.358;2023-06-14T13:17:35;32.00;42.40
54158;DHT22;40065;49.894;10.358;2023-06-14T13:22:40;31.70;41.70
54158;DHT22;40065;49.894;10.358;2023-06-14T13:27:42;31.60;41.90
54158;DHT22;40065;49.894;10.358;2023-06-14T13:32:44;31.80;41.80
54158;DHT22;40065;49.894;10.358;2023-06-14T13:37:50;31.10;42.50
54158;DHT22;40065;49.894;10.358;2023-06-14T13:42:52;30.50;42.60
54158;DHT22;40065;49.894;10.358;2023-06-14T13:47:53;30.90;42.40
54158;DHT22;40065;49.894;10.358;2023-06-14T13:52:56;31.70;41.60
54158;DHT22;40065;49.894;10.358;2023-06-14T13:57:58;31.90;41.50
54158;DHT22;40065;49.894;10.358;2023-06-14T14:03:00;31.40;42.60
54158;DHT22;40065;49.894;10.358;2023-06-14T14:08:02;30.10;43.80
54158;DHT22;40065;49.894;10.358;2023-06-14T14:13:05;29.00;44.40
54158;DHT22;40065;49.894;10.358;2023-06-14T14:18:07;28.80;44.50
54158;DHT22;40065;49.894;10.358;2023-06-14T14:23:09;29.20;44.20
54158;DHT22;40065;49.894;10.358;2023-06-14T14:28:11;29.50;42.80
54158;DHT22;40065;49.894;10.358;2023-06-14T14:33:14;30.90;42.00
54158;DHT22;40065;49.894;10.358;2023-06-14T14:38:18;31.20;42.00
54158;DHT22;40065;49.894;10.358;2023-06-14T14:43:20;32.10;41.70
54158;DHT22;40065;49.894;10.358;2023-06-14T14:48:22;32.10;41.00
54158;DHT22;40065;49.894;10.358;2023-06-14T14:53:24;31.10;42.30
54158;DHT22;40065;49.894;10.358;2023-06-14T14:58:26;29.90;43.20
54158;DHT22;40065;49.894;10.358;2023-06-14T15:03:28;29.90;43.70
54158;DHT22;40065;49.894;10.358;2023-06-14T15:08:30;29.40;44.60
54158;DHT22;40065;49.894;10.358;2023-06-14T15:13:32;29.30;44.50
54158;DHT22;40065;49.894;10.358;2023-06-14T15:18:34;29.20;44.70
54158;DHT22;40065;49.894;10.358;2023-06-14T15:23:36;28.60;45.40
54158;DHT22;40065;49.894;10.358;2023-06-14T15:28:38;29.10;45.70
54158;DHT22;40065;49.894;10.358;2023-06-14T15:33:39;28.90;45.70
54158;DHT22;40065;49.894;10.358;2023-06-14T15:38:41;28.90;45.40
54158;DHT22;40065;49.894;10.358;2023-06-14T15:43:43;29.00;45.20
54158;DHT22;40065;49.894;10.358;2023-06-14T15:48:45;28.80;45.40
54158;DHT22;40065;49.894;10.358;2023-06-14T15:53:47;28.50;45.40
54158;DHT22;40065;49.894;10.358;2023-06-14T15:58:49;28.90;46.30
54158;DHT22;40065;49.894;10.358;2023-06-14T16:03:53;29.50;45.10
54158;DHT22;40065;49.894;10.358;2023-06-14T16:08:55;30.40;44.30
54158;DHT22;40065;49.894;10.358;2023-06-14T16:13:57;30.30;43.80
54158;DHT22;40065;49.894;10.358;2023-06-14T16:18:58;29.60;44.50
54158;DHT22;40065;49.894;10.358;2023-06-14T16:24:00;29.70;44.10
54158;DHT22;40065;49.894;10.358;2023-06-14T16:29:02;28.90;45.00
54158;DHT22;40065;49.894;10.358;2023-06-14T16:34:04;29.00;45.40
54158;DHT22;40065;49.894;10.358;2023-06-14T16:39:09;28.80;45.40
54158;DHT22;40065;49.894;10.358;2023-06-14T16:44:13;28.40;45.80
54158;DHT22;40065;49.894;10.358;2023-06-14T16:49:16;28.30;46.10
54158;DHT22;40065;49.894;10.358;2023-06-14T16:54:17;28.20;46.90
54158;DHT22;40065;49.894;10.358;2023-06-14T16:59:19;28.00;47.30
54158;DHT22;40065;49.894;10.358;2023-06-14T17:04:22;27.70;47.60
54158;DHT22;40065;49.894;10.358;2023-06-14T17:09:23;27.50;47.30
54158;DHT22;40065;49.894;10.358;2023-06-14T17:14:25;27.70;47.10
54158;DHT22;40065;49.894;10.358;2023-06-14T17:19:27;27.60;47.40
54158;DHT22;40065;49.894;10.358;2023-06-14T17:24:29;27.90;46.10
54158;DHT22;40065;49.894;10.358;2023-06-14T17:29:31;28.10;46.00
54158;DHT22;40065;49.894;10.358;2023-06-14T17:34:33;27.60;46.70
54158;DHT22;40065;49.894;10.358;2023-06-14T17:39:34;27.40;46.90
54158;DHT22;40065;49.894;10.358;2023-06-14T17:44:38;27.30;47.10
54158;DHT22;40065;49.894;10.358;2023-06-14T17:49:39;26.90;47.90
54158;DHT22;40065;49.894;10.358;2023-06-14T17:54:41;26.70;48.30
54158;DHT22;40065;49.894;10.358;2023-06-14T17:59:43;26.60;48.10
54158;DHT22;40065;49.894;10.358;2023-06-14T18:04:45;26.40;48.70
54158;DHT22;40065;49.894;10.358;2023-06-14T18:09:47;26.20;49.00
54158;DHT22;40065;49.894;10.358;2023-06-14T18:14:48;26.10;49.00
54158;DHT22;40065;49.894;10.358;2023-06-14T18:19:50;26.10;49.30
54158;DHT22;40065;49.894;10.358;2023-06-14T18:24:52;26.00;49.80
54158;DHT22;40065;49.894;10.358;2023-06-14T18:29:54;25.70;50.30
54158;DHT22;40065;49.894;10.358;2023-06-14T18:34:56;25.30;51.40
54158;DHT22;40065;49.894;10.358;2023-06-14T18:39:58;25.10;52.40
54158;DHT22;40065;49.894;10.358;2023-06-14T18:45:00;25.00;52.20
54158;DHT22;40065;49.894;10.358;2023-06-14T18:50:02;24.90;52.60
54158;DHT22;40065;49.894;10.358;2023-06-14T18:55:05;25.00;52.00
54158;DHT22;40065;49.894;10.358;2023-06-14T19:00:07;24.90;51.80
54158;DHT22;40065;49.894;10.358;2023-06-14T19:05:10;24.80;51.70
54158;DHT22;40065;49.894;10.358;2023-06-14T19:10:12;24.60;51.90
54158;DHT22;40065;49.894;10.358;2023-06-14T19:15:14;24.20;52.20
54158;DHT22;40065;49.894;10.358;2023-06-14T19:20:16;24.10;52.30
54158;DHT22;40065;49.894;10.358;2023-06-14T19:25:19;23.90;52.80
54158;DHT22;40065;49.894;10.358;2023-06-14T19:30:21;23.70;52.90
54158;DHT22;40065;49.894;10.358;2023-06-14T19:35:23;23.40;53.50
54158;DHT22;40065;49.894;10.358;2023-06-14T19:40:25;23.20;53.90
54158;DHT22;40065;49.894;10.358;2023-06-14T19:45:26;23.10;54.30
54158;DHT22;40065;49.894;10.358;2023-06-14T19:50:28;22.80;54.80
54158;DHT22;40065;49.894;10.358;2023-06-14T19:55:30;22.70;54.90
54158;DHT22;40065;49.894;10.358;2023-06-14T20:00:32;22.50;55.00
54158;DHT22;40065;49.894;10.358;2023-06-14T20:05:34;22.40;55.30
54158;DHT22;40065;49.894;10.358;2023-06-14T20:10:37;22.60;54.60
54158;DHT22;40065;49.894;10.358;2023-06-14T20:15:39;22.30;55.30
54158;DHT22;40065;49.894;10.358;2023-06-14T20:20:41;22.30;55.30
54158;DHT22;40065;49.894;10.358;2023-06-14T20:25:43;22.10;55.70
54158;DHT22;40065;49.894;10.358;2023-06-14T20:30:45;22.00;56.20
54158;DHT22;40065;49.894;10.358;2023-06-14T20:35:47;21.90;56.30
54158;DHT22;40065;49.894;10.358;2023-06-14T20:40:49;21.90;56.70
54158;DHT22;40065;49.894;10.358;2023-06-14T20:45:51;21.70;56.90
54158;DHT22;40065;49.894;10.358;2023-06-14T20:50:56;21.50;57.40
54158;DHT22;40065;49.894;10.358;2023-06-14T20:55:58;21.80;56.70
54158;DHT22;40065;49.894;10.358;2023-06-14T21:01:00;21.60;57.30
54158;DHT22;40065;49.894;10.358;2023-06-14T21:06:02;21.80;57.10
54158;DHT22;40065;49.894;10.358;2023-06-14T21:11:07;21.40;57.90
54158;DHT22;40065;49.894;10.358;2023-06-14T21:16:09;21.70;58.10
54158;DHT22;40065;49.894;10.358;2023-06-14T21:21:11;21.80;57.30
54158;DHT22;40065;49.894;10.358;2023-06-14T21:26:13;21.10;58.10
54158;DHT22;40065;49.894;10.358;2023-06-14T21:31:18;21.00;59.00
54158;DHT22;40065;49.894;10.358;2023-06-14T21:36:20;21.20;58.60
54158;DHT22;40065;49.894;10.358;2023-06-14T21:41:22;20.80;59.20
54158;DHT22;40065;49.894;10.358;2023-06-14T21:46:24;20.70;59.40
54158;DHT22;40065;49.894;10.358;2023-06-14T21:51:25;20.70;59.70
54158;DHT22;40065;49.894;10.358;2023-06-14T21:56:27;20.60;60.10
54158;DHT22;40065;49.894;10.358;2023-06-14T22:01:29;20.50;60.80
54158;DHT22;40065;49.894;10.358;2023-06-14T22:06:31;20.30;61.30
54158;DHT22;40065;49.894;10.358;2023-06-14T22:11:33;20.40;61.50
54158;DHT22;40065;49.894;10.358;2023-06-14T22:16:36;20.20;62.00
54158;DHT22;40065;49.894;10.358;2023-06-14T22:21:38;20.10;62.30
54158;DHT22;40065;49.894;10.358;2023-06-14T22:26:42;20.10;62.90
54158;DHT22;40065;49.894;10.358;2023-06-14T22:31:50;20.00;63.80
54158;DHT22;40065;49.894;10.358;2023-06-14T22:36:52;19.90;64.20
54158;DHT22;40065;49.894;10.358;2023-06-14T22:41:56;19.80;64.60
54158;DHT22;40065;49.894;10.358;2023-06-14T22:46:57;19.80;64.50
54158;DHT22;40065;49.894;10.358;2023-06-14T22:52:01;19.80;64.90
54158;DHT22;40065;49.894;10.358;2023-06-14T22:57:06;19.70;65.00
54158;DHT22;40065;49.894;10.358;2023-06-14T23:02:09;19.70;65.70
54158;DHT22;40065;49.894;10.358;2023-06-14T23:07:13;19.60;66.10
54158;DHT22;40065;49.894;10.358;2023-06-14T23:12:16;19.60;66.70
54158;DHT22;40065;49.894;10.358;2023-06-14T23:17:18;19.50;66.60
54158;DHT22;40065;49.894;10.358;2023-06-14T23:22:20;19.50;66.90
54158;DHT22;40065;49.894;10.358;2023-06-14T23:27:23;19.50;67.20
54158;DHT22;40065;49.894;10.358;2023-06-14T23:32:25;19.50;67.00
54158;DHT22;40065;49.894;10.358;2023-06-14T23:37:31;19.40;67.30
54158;DHT22;40065;49.894;10.358;2023-06-14T23:42:32;19.40;67.50
54158;DHT22;40065;49.894;10.358;2023-06-14T23:47:35;19.30;68.00
54158;DHT22;40065;49.894;10.358;2023-06-14T23:52:37;19.60;67.80
54158;DHT22;40065;49.894;10.358;2023-06-14T23:57:39;19.40;68.30
